Forth Bay — V7SU6 — position and weather

sailwx.info

Track history (hours):
 
Tides and Currents Weather Stations Pressure Air Temp Water Temp Dewpoint Dewpoint Depression Visibility Wind Speed Wind Dir Waves Ship Positions

Forth Bay

Last reported at 2018-Apr-16 16:42 UTC. Time now 2018-Apr-23 03:48 UTC.
Position N 28°54' W 093°57'.

Length 120 m; draft 7.4 m.

Type: Tanker. MMSI: 538003723.

Date/timePositionNaut miles runAvg speedWind from/ knotsBaromVisibWave heightAir tempDewpointWater temp
2018-Apr-16 16:42N 28°54' W 093°57'1313.5
2018-Apr-16 15:42N 29°01' W 094°10'413.3
2018-Apr-16 15:26N 29°03' W 094°13'1412.7
2018-Apr-16 14:21N 29°09' W 094°27'513.1
2018-Apr-16 13:56N 29°13' W 094°31'712.4
2018-Apr-16 13:21N 29°18' W 094°37'411.9
2018-Apr-16 12:59N 29°20' W 094°42'511.3
2018-Apr-16 12:30N 29°22' W 094°48'611.3
2018-Apr-16 12:00N 29°27' W 094°50'511.0
2018-Apr-16 11:30N 29°32' W 094°53'611.4
2018-Apr-16 11:00N 29°36' W 094°57'611.4
2018-Apr-16 10:30N 29°42' W 094°59'4 7.9
2018-Apr-16 10:00N 29°44' W 095°03'3 5.6
2018-Apr-16 09:29N 29°45' W 095°06'3 6.5
2018-Apr-16 08:59N 29°45' W 095°10'3 6.3
2018-Apr-16 08:30N 29°44' W 095°13'3 5.4
2018-Apr-16 08:00N 29°44' W 095°16'0 0.0
2018-Apr-14 22:52N 29°44' W 095°16'1 1.5
2018-Apr-14 22:30N 29°44' W 095°15'2 4.8
2018-Apr-14 22:00N 29°44' W 095°12'3 5.2
2018-Apr-14 21:30N 29°45' W 095°10'3 5.7
2018-Apr-14 21:00N 29°45' W 095°06'3 5.7
2018-Apr-14 20:30N 29°44' W 095°03'4 8.3
2018-Apr-14 20:00N 29°42' W 094°59'510.8
2018-Apr-14 19:30N 29°36' W 094°57'5 9.7
2018-Apr-14 19:00N 29°32' W 094°54'612.1
2018-Apr-14 18:30N 29°27' W 094°51'611.9
2018-Apr-14 18:00N 29°22' W 094°48'13 2.3
2018-Apr-14 12:14N 29°19' W 094°33'0 0.1
2018-Apr-14 11:59N 29°19' W 094°33'0 0.0
2018-Apr-14 11:26N 29°19' W 094°33'0 0.0
2018-Apr-14 10:56N 29°19' W 094°33'0 0.0
2018-Apr-14 10:23N 29°19' W 094°33'0 0.1
2018-Apr-14 06:50N 29°19' W 094°33'0 0.0
2018-Apr-14 06:29N 29°19' W 094°33'0 0.0
2018-Apr-14 05:41N 29°19' W 094°33'0 0.0
2018-Apr-14 04:47N 29°19' W 094°33'0 0.1
2018-Apr-14 04:26N 29°19' W 094°33'0 0.0
2018-Apr-14 03:59N 29°19' W 094°33'0 0.0
2018-Apr-13 18:35N 29°19' W 094°33'0 0.1
2018-Apr-13 18:29N 29°19' W 094°33'0 0.0
2018-Apr-13 17:47N 29°19' W 094°33'0 0.0
2018-Apr-13 17:26N 29°19' W 094°33'0 0.0
2018-Apr-13 16:53N 29°19' W 094°33'0 0.0
2018-Apr-13 16:14N 29°19' W 094°33'0 0.0
2018-Apr-13 14:08N 29°19' W 094°33'0 0.0
2018-Apr-13 13:59N 29°19' W 094°33'0 0.0
2018-Apr-13 13:29N 29°19' W 094°33'0 0.1
2018-Apr-13 12:59N 29°19' W 094°33'0 0.0
2018-Apr-13 09:26N 29°19' W 094°33'0 0.0
2018-Apr-13 08:59N 29°19' W 094°33'0 0.0
2018-Apr-13 08:29N 29°19' W 094°33'0 0.0
2018-Apr-13 07:59N 29°19' W 094°33'0 0.0
2018-Apr-13 07:26N 29°19' W 094°33'0 0.0
2018-Apr-13 06:56N 29°19' W 094°33'0 0.0
2018-Apr-13 06:20N 29°19' W 094°33'0 0.1
2018-Apr-13 05:56N 29°19' W 094°33'0 0.0
2018-Apr-13 05:20N 29°19' W 094°33'0 0.0
2018-Apr-13 04:53N 29°19' W 094°33'0 0.0
2018-Apr-13 04:26N 29°19' W 094°33'0 0.0
2018-Apr-13 03:59N 29°19' W 094°33'0 0.0
2018-Apr-13 03:26N 29°19' W 094°33'0 0.0
2018-Apr-13 02:59N 29°19' W 094°33'0 0.0
2018-Apr-13 02:20N 29°19' W 094°33'0 0.0
2018-Apr-13 01:56N 29°19' W 094°33'0 0.0
2018-Apr-13 01:23N 29°19' W 094°33'0 0.0
2018-Apr-13 00:56N 29°19' W 094°33'0 0.0
2018-Apr-13 00:26N 29°19' W 094°33'0 0.0
2018-Apr-12 23:59N 29°19' W 094°33'0 0.0
2018-Apr-12 23:26N 29°19' W 094°33'0 0.0
2018-Apr-12 22:59N 29°19' W 094°33'0 0.0
2018-Apr-12 22:26N 29°19' W 094°33'0 0.0
2018-Apr-12 21:59N 29°19' W 094°33'0 0.0
2018-Apr-12 21:29N 29°19' W 094°33'0 0.0
2018-Apr-12 20:53N 29°19' W 094°33'0 0.0
2018-Apr-12 20:20N 29°19' W 094°33'0 0.0
2018-Apr-12 19:56N 29°19' W 094°33'0 0.0
2018-Apr-12 19:29N 29°19' W 094°33'0 0.0
2018-Apr-12 18:32N 29°19' W 094°33'0 0.0
2018-Apr-12 17:35N 29°19' W 094°33'0 0.0
2018-Apr-12 17:29N 29°19' W 094°33'0 0.0
2018-Apr-12 16:59N 29°19' W 094°33'0 0.0
2018-Apr-12 16:26N 29°19' W 094°33'0 0.0
2018-Apr-12 15:56N 29°19' W 094°33'0 0.0
2018-Apr-12 15:17N 29°19' W 094°33'0 0.0
2018-Apr-12 14:44N 29°19' W 094°33'0 0.0
2018-Apr-12 14:20N 29°19' W 094°33'0 0.0
2018-Apr-12 13:59N 29°19' W 094°33'0 0.0
2018-Apr-12 13:26N 29°19' W 094°33'0 0.0
2018-Apr-12 11:47N 29°19' W 094°33'0 0.1
2018-Apr-12 11:26N 29°19' W 094°33'0 0.0
2018-Apr-12 10:38N 29°19' W 094°33'0 0.2
2018-Apr-12 10:26N 29°19' W 094°33'0 0.0
2018-Apr-12 09:47N 29°19' W 094°33'0 0.0
2018-Apr-12 09:29N 29°19' W 094°33'0 0.1
2018-Apr-12 08:59N 29°19' W 094°33'0 0.0
2018-Apr-12 08:29N 29°19' W 094°33'0 0.1
2018-Apr-12 07:59N 29°19' W 094°33'0 0.0
2018-Apr-12 07:29N 29°19' W 094°33'0 0.0
2018-Apr-12 06:59N 29°19' W 094°33'0 0.0
2018-Apr-12 06:29N 29°19' W 094°33'0 0.0
2018-Apr-12 05:59N 29°19' W 094°33'0 0.0
2018-Apr-12 05:29N 29°19' W 094°33'0 0.0
2018-Apr-12 04:59N 29°19' W 094°33'0 0.0
2018-Apr-12 04:29N 29°19' W 094°33'0 0.0
2018-Apr-12 03:59N 29°19' W 094°33'0 0.0
2018-Apr-12 03:29N 29°19' W 094°33'0 0.0
2018-Apr-12 02:53N 29°19' W 094°33'0 0.0
2018-Apr-12 02:26N 29°19' W 094°33'0 0.0
2018-Apr-12 01:59N 29°19' W 094°33'0 0.0
2018-Apr-12 01:26N 29°19' W 094°33'0 0.0
2018-Apr-12 00:50N 29°19' W 094°33'0 0.0
2018-Apr-12 00:29N 29°19' W 094°33'0 0.0
2018-Apr-11 23:53N 29°19' W 094°33'0 0.0
2018-Apr-11 23:26N 29°19' W 094°33'0 0.0
2018-Apr-11 22:44N 29°19' W 094°33'0 0.1
2018-Apr-11 22:23N 29°19' W 094°33'0 0.9
2018-Apr-11 22:00N 29°18' W 094°33'  
Track history (hours):
 
Tides and Currents Weather Stations Pressure Air Temp Water Temp Dewpoint Dewpoint Depression Visibility Wind Speed Wind Dir Waves Ship Positions

Forth Bay

Last reported at 2018-Apr-16 16:42 UTC. Time now 2018-Apr-23 03:48 UTC.
Position N 28°54' W 093°57'.

Length 120 m; draft 7.4 m.

Type: Tanker. MMSI: 538003723.

Date/timePositionNaut miles runAvg speedWind from/ knotsBaromVisibWave heightAir tempDewpointWater temp
2018-Apr-16 16:42N 28°54' W 093°57'1313.5
2018-Apr-16 15:42N 29°01' W 094°10'413.3
2018-Apr-16 15:26N 29°03' W 094°13'1412.7
2018-Apr-16 14:21N 29°09' W 094°27'513.1
2018-Apr-16 13:56N 29°13' W 094°31'712.4
2018-Apr-16 13:21N 29°18' W 094°37'411.9
2018-Apr-16 12:59N 29°20' W 094°42'511.3
2018-Apr-16 12:30N 29°22' W 094°48'611.3
2018-Apr-16 12:00N 29°27' W 094°50'511.0
2018-Apr-16 11:30N 29°32' W 094°53'611.4
2018-Apr-16 11:00N 29°36' W 094°57'611.4
2018-Apr-16 10:30N 29°42' W 094°59'4 7.9
2018-Apr-16 10:00N 29°44' W 095°03'3 5.6
2018-Apr-16 09:29N 29°45' W 095°06'3 6.5
2018-Apr-16 08:59N 29°45' W 095°10'3 6.3
2018-Apr-16 08:30N 29°44' W 095°13'3 5.4
2018-Apr-16 08:00N 29°44' W 095°16'0 0.0
2018-Apr-14 22:52N 29°44' W 095°16'1 1.5
2018-Apr-14 22:30N 29°44' W 095°15'2 4.8
2018-Apr-14 22:00N 29°44' W 095°12'3 5.2
2018-Apr-14 21:30N 29°45' W 095°10'3 5.7
2018-Apr-14 21:00N 29°45' W 095°06'3 5.7
2018-Apr-14 20:30N 29°44' W 095°03'4 8.3
2018-Apr-14 20:00N 29°42' W 094°59'510.8
2018-Apr-14 19:30N 29°36' W 094°57'5 9.7
2018-Apr-14 19:00N 29°32' W 094°54'612.1
2018-Apr-14 18:30N 29°27' W 094°51'611.9
2018-Apr-14 18:00N 29°22' W 094°48'13 2.3
2018-Apr-14 12:14N 29°19' W 094°33'0 0.1
2018-Apr-14 11:59N 29°19' W 094°33'0 0.0
2018-Apr-14 11:26N 29°19' W 094°33'0 0.0
2018-Apr-14 10:56N 29°19' W 094°33'0 0.0
2018-Apr-14 10:23N 29°19' W 094°33'0 0.1
2018-Apr-14 06:50N 29°19' W 094°33'0 0.0
2018-Apr-14 06:29N 29°19' W 094°33'0 0.0
2018-Apr-14 05:41N 29°19' W 094°33'0 0.0
2018-Apr-14 04:47N 29°19' W 094°33'0 0.1
2018-Apr-14 04:26N 29°19' W 094°33'0 0.0
2018-Apr-14 03:59N 29°19' W 094°33'0 0.0
2018-Apr-13 18:35N 29°19' W 094°33'0 0.1
2018-Apr-13 18:29N 29°19' W 094°33'0 0.0
2018-Apr-13 17:47N 29°19' W 094°33'0 0.0
2018-Apr-13 17:26N 29°19' W 094°33'0 0.0
2018-Apr-13 16:53N 29°19' W 094°33'0 0.0
2018-Apr-13 16:14N 29°19' W 094°33'0 0.0
2018-Apr-13 14:08N 29°19' W 094°33'0 0.0
2018-Apr-13 13:59N 29°19' W 094°33'0 0.0
2018-Apr-13 13:29N 29°19' W 094°33'0 0.1
2018-Apr-13 12:59N 29°19' W 094°33'0 0.0
2018-Apr-13 09:26N 29°19' W 094°33'0 0.0
2018-Apr-13 08:59N 29°19' W 094°33'0 0.0
2018-Apr-13 08:29N 29°19' W 094°33'0 0.0
2018-Apr-13 07:59N 29°19' W 094°33'0 0.0
2018-Apr-13 07:26N 29°19' W 094°33'0 0.0
2018-Apr-13 06:56N 29°19' W 094°33'0 0.0
2018-Apr-13 06:20N 29°19' W 094°33'0 0.1
2018-Apr-13 05:56N 29°19' W 094°33'0 0.0
2018-Apr-13 05:20N 29°19' W 094°33'0 0.0
2018-Apr-13 04:53N 29°19' W 094°33'0 0.0
2018-Apr-13 04:26N 29°19' W 094°33'0 0.0
2018-Apr-13 03:59N 29°19' W 094°33'0 0.0
2018-Apr-13 03:26N 29°19' W 094°33'0 0.0
2018-Apr-13 02:59N 29°19' W 094°33'0 0.0
2018-Apr-13 02:20N 29°19' W 094°33'0 0.0
2018-Apr-13 01:56N 29°19' W 094°33'0 0.0
2018-Apr-13 01:23N 29°19' W 094°33'0 0.0
2018-Apr-13 00:56N 29°19' W 094°33'0 0.0
2018-Apr-13 00:26N 29°19' W 094°33'0 0.0
2018-Apr-12 23:59N 29°19' W 094°33'0 0.0
2018-Apr-12 23:26N 29°19' W 094°33'0 0.0
2018-Apr-12 22:59N 29°19' W 094°33'0 0.0
2018-Apr-12 22:26N 29°19' W 094°33'0 0.0
2018-Apr-12 21:59N 29°19' W 094°33'0 0.0
2018-Apr-12 21:29N 29°19' W 094°33'0 0.0
2018-Apr-12 20:53N 29°19' W 094°33'0 0.0
2018-Apr-12 20:20N 29°19' W 094°33'0 0.0
2018-Apr-12 19:56N 29°19' W 094°33'0 0.0
2018-Apr-12 19:29N 29°19' W 094°33'0 0.0
2018-Apr-12 18:32N 29°19' W 094°33'0 0.0
2018-Apr-12 17:35N 29°19' W 094°33'0 0.0
2018-Apr-12 17:29N 29°19' W 094°33'0 0.0
2018-Apr-12 16:59N 29°19' W 094°33'0 0.0
2018-Apr-12 16:26N 29°19' W 094°33'0 0.0
2018-Apr-12 15:56N 29°19' W 094°33'0 0.0
2018-Apr-12 15:17N 29°19' W 094°33'0 0.0
2018-Apr-12 14:44N 29°19' W 094°33'0 0.0
2018-Apr-12 14:20N 29°19' W 094°33'0 0.0
2018-Apr-12 13:59N 29°19' W 094°33'0 0.0
2018-Apr-12 13:26N 29°19' W 094°33'0 0.0
2018-Apr-12 11:47N 29°19' W 094°33'0 0.1
2018-Apr-12 11:26N 29°19' W 094°33'0 0.0
2018-Apr-12 10:38N 29°19' W 094°33'0 0.2
2018-Apr-12 10:26N 29°19' W 094°33'0 0.0
2018-Apr-12 09:47N 29°19' W 094°33'0 0.0
2018-Apr-12 09:29N 29°19' W 094°33'0 0.1
2018-Apr-12 08:59N 29°19' W 094°33'0 0.0
2018-Apr-12 08:29N 29°19' W 094°33'0 0.1
2018-Apr-12 07:59N 29°19' W 094°33'0 0.0
2018-Apr-12 07:29N 29°19' W 094°33'0 0.0
2018-Apr-12 06:59N 29°19' W 094°33'0 0.0
2018-Apr-12 06:29N 29°19' W 094°33'0 0.0
2018-Apr-12 05:59N 29°19' W 094°33'0 0.0
2018-Apr-12 05:29N 29°19' W 094°33'0 0.0
2018-Apr-12 04:59N 29°19' W 094°33'0 0.0
2018-Apr-12 04:29N 29°19' W 094°33'0 0.0
2018-Apr-12 03:59N 29°19' W 094°33'0 0.0
2018-Apr-12 03:29N 29°19' W 094°33'0 0.0
2018-Apr-12 02:53N 29°19' W 094°33'0 0.0
2018-Apr-12 02:26N 29°19' W 094°33'0 0.0
2018-Apr-12 01:59N 29°19' W 094°33'0 0.0
2018-Apr-12 01:26N 29°19' W 094°33'0 0.0
2018-Apr-12 00:50N 29°19' W 094°33'0 0.0
2018-Apr-12 00:29N 29°19' W 094°33'0 0.0
2018-Apr-11 23:53N 29°19' W 094°33'0 0.0
2018-Apr-11 23:26N 29°19' W 094°33'0 0.0
2018-Apr-11 22:44N 29°19' W 094°33'0 0.1
2018-Apr-11 22:23N 29°19' W 094°33'0 0.9
2018-Apr-11 22:00N 29°18' W 094°33'  

Dump ship's entire track history